sensor_id;sensor_type;location;lat;lon;timestamp;P1;durP1;ratioP1;P2;durP2;ratioP2
1412;SDS011;701;52.526;13.408;2023-07-24T00:02:12;8.15;;;2.00;;
1412;SDS011;701;52.526;13.408;2023-07-24T00:04:38;6.07;;;2.30;;
1412;SDS011;701;52.526;13.408;2023-07-24T00:07:04;5.57;;;2.13;;
1412;SDS011;701;52.526;13.408;2023-07-24T00:09:30;5.93;;;2.13;;
1412;SDS011;701;52.526;13.408;2023-07-24T00:11:55;6.03;;;2.20;;
1412;SDS011;701;52.526;13.408;2023-07-24T00:14:21;5.40;;;1.95;;
1412;SDS011;701;52.526;13.408;2023-07-24T00:16:47;5.53;;;2.30;;
1412;SDS011;701;52.526;13.408;2023-07-24T00:19:13;7.15;;;2.35;;
1412;SDS011;701;52.526;13.408;2023-07-24T00:24:13;5.68;;;2.22;;
1412;SDS011;701;52.526;13.408;2023-07-24T00:26:38;6.55;;;2.33;;
1412;SDS011;701;52.526;13.408;2023-07-24T00:29:04;5.80;;;2.13;;
1412;SDS011;701;52.526;13.408;2023-07-24T00:31:30;7.97;;;2.45;;
1412;SDS011;701;52.526;13.408;2023-07-24T00:33:55;6.63;;;2.33;;
1412;SDS011;701;52.526;13.408;2023-07-24T00:36:21;6.18;;;2.38;;
1412;SDS011;701;52.526;13.408;2023-07-24T00:38:47;5.43;;;1.80;;
1412;SDS011;701;52.526;13.408;2023-07-24T00:41:13;5.47;;;2.20;;
1412;SDS011;701;52.526;13.408;2023-07-24T00:43:39;5.93;;;2.30;;
1412;SDS011;701;52.526;13.408;2023-07-24T00:46:06;6.13;;;2.40;;
1412;SDS011;701;52.526;13.408;2023-07-24T00:48:32;4.88;;;1.90;;
1412;SDS011;701;52.526;13.408;2023-07-24T00:50:58;6.28;;;2.20;;
1412;SDS011;701;52.526;13.408;2023-07-24T00:53:23;5.77;;;2.20;;
1412;SDS011;701;52.526;13.408;2023-07-24T00:55:49;5.68;;;2.08;;
1412;SDS011;701;52.526;13.408;2023-07-24T00:58:15;5.17;;;2.00;;
1412;SDS011;701;52.526;13.408;2023-07-24T01:00:42;5.17;;;1.90;;
1412;SDS011;701;52.526;13.408;2023-07-24T01:03:08;6.13;;;2.47;;
1412;SDS011;701;52.526;13.408;2023-07-24T01:05:35;5.35;;;1.80;;
1412;SDS011;701;52.526;13.408;2023-07-24T01:08:01;8.63;;;2.30;;
1412;SDS011;701;52.526;13.408;2023-07-24T01:10:29;5.95;;;2.17;;
1412;SDS011;701;52.526;13.408;2023-07-24T01:18:07;4.87;;;1.90;;
1412;SDS011;701;52.526;13.408;2023-07-24T01:20:36;5.22;;;1.95;;
1412;SDS011;701;52.526;13.408;2023-07-24T01:23:09;6.13;;;2.13;;
1412;SDS011;701;52.526;13.408;2023-07-24T01:28:20;5.80;;;2.17;;
1412;SDS011;701;52.526;13.408;2023-07-24T01:30:46;7.17;;;2.10;;
1412;SDS011;701;52.526;13.408;2023-07-24T01:33:12;5.82;;;2.17;;
1412;SDS011;701;52.526;13.408;2023-07-24T01:35:39;12.05;;;2.90;;
1412;SDS011;701;52.526;13.408;2023-07-24T01:38:09;5.40;;;1.90;;
1412;SDS011;701;52.526;13.408;2023-07-24T01:40:41;6.18;;;2.00;;
1412;SDS011;701;52.526;13.408;2023-07-24T01:43:08;6.65;;;1.75;;
1412;SDS011;701;52.526;13.408;2023-07-24T01:45:34;5.95;;;1.85;;
1412;SDS011;701;52.526;13.408;2023-07-24T01:48:01;5.45;;;2.08;;
1412;SDS011;701;52.526;13.408;2023-07-24T01:50:29;5.73;;;1.70;;
1412;SDS011;701;52.526;13.408;2023-07-24T01:52:55;5.13;;;1.92;;
1412;SDS011;701;52.526;13.408;2023-07-24T01:55:20;7.30;;;2.17;;
1412;SDS011;701;52.526;13.408;2023-07-24T01:57:46;4.77;;;1.87;;
1412;SDS011;701;52.526;13.408;2023-07-24T02:00:12;5.68;;;2.10;;
1412;SDS011;701;52.526;13.408;2023-07-24T02:02:38;6.37;;;2.20;;
1412;SDS011;701;52.526;13.408;2023-07-24T02:05:04;5.50;;;2.35;;
1412;SDS011;701;52.526;13.408;2023-07-24T02:07:30;6.63;;;2.03;;
1412;SDS011;701;52.526;13.408;2023-07-24T02:09:56;6.30;;;1.80;;
1412;SDS011;701;52.526;13.408;2023-07-24T02:12:22;5.75;;;1.80;;
1412;SDS011;701;52.526;13.408;2023-07-24T02:14:47;5.30;;;1.88;;
1412;SDS011;701;52.526;13.408;2023-07-24T02:17:15;6.53;;;2.10;;
1412;SDS011;701;52.526;13.408;2023-07-24T02:19:41;5.83;;;1.83;;
1412;SDS011;701;52.526;13.408;2023-07-24T02:22:07;6.25;;;2.13;;
1412;SDS011;701;52.526;13.408;2023-07-24T02:24:34;5.30;;;2.10;;
1412;SDS011;701;52.526;13.408;2023-07-24T02:27:00;6.03;;;2.10;;
1412;SDS011;701;52.526;13.408;2023-07-24T02:29:25;7.82;;;2.15;;
1412;SDS011;701;52.526;13.408;2023-07-24T02:31:52;7.90;;;1.90;;
1412;SDS011;701;52.526;13.408;2023-07-24T02:34:19;4.88;;;1.80;;
1412;SDS011;701;52.526;13.408;2023-07-24T02:36:49;6.07;;;2.13;;
1412;SDS011;701;52.526;13.408;2023-07-24T02:39:15;5.40;;;1.73;;
1412;SDS011;701;52.526;13.408;2023-07-24T02:41:41;5.30;;;1.85;;
1412;SDS011;701;52.526;13.408;2023-07-24T02:44:07;6.23;;;2.00;;
1412;SDS011;701;52.526;13.408;2023-07-24T02:46:33;5.07;;;1.80;;
1412;SDS011;701;52.526;13.408;2023-07-24T02:48:58;6.67;;;1.70;;
1412;SDS011;701;52.526;13.408;2023-07-24T02:51:24;5.53;;;1.90;;
1412;SDS011;701;52.526;13.408;2023-07-24T02:53:50;6.47;;;1.90;;
1412;SDS011;701;52.526;13.408;2023-07-24T02:56:16;9.18;;;2.10;;
1412;SDS011;701;52.526;13.408;2023-07-24T02:58:41;5.33;;;2.10;;
1412;SDS011;701;52.526;13.408;2023-07-24T03:01:07;5.65;;;1.80;;
1412;SDS011;701;52.526;13.408;2023-07-24T03:03:33;5.88;;;2.08;;
1412;SDS011;701;52.526;13.408;2023-07-24T03:06:00;6.10;;;1.70;;
1412;SDS011;701;52.526;13.408;2023-07-24T03:08:25;5.83;;;2.00;;
1412;SDS011;701;52.526;13.408;2023-07-24T03:10:51;5.20;;;1.80;;
1412;SDS011;701;52.526;13.408;2023-07-24T03:13:17;4.90;;;1.80;;
1412;SDS011;701;52.526;13.408;2023-07-24T03:15:43;4.88;;;1.45;;
1412;SDS011;701;52.526;13.408;2023-07-24T03:18:08;5.07;;;1.70;;
1412;SDS011;701;52.526;13.408;2023-07-24T03:20:34;5.10;;;1.60;;
1412;SDS011;701;52.526;13.408;2023-07-24T03:23:00;5.55;;;1.60;;
1412;SDS011;701;52.526;13.408;2023-07-24T03:25:26;4.33;;;1.60;;
1412;SDS011;701;52.526;13.408;2023-07-24T03:27:51;6.55;;;2.13;;
1412;SDS011;701;52.526;13.408;2023-07-24T03:30:18;4.40;;;1.40;;
1412;SDS011;701;52.526;13.408;2023-07-24T03:32:44;5.55;;;1.42;;
1412;SDS011;701;52.526;13.408;2023-07-24T03:35:10;5.27;;;1.63;;
1412;SDS011;701;52.526;13.408;2023-07-24T03:37:35;4.72;;;1.52;;
1412;SDS011;701;52.526;13.408;2023-07-24T03:40:01;4.20;;;1.33;;
1412;SDS011;701;52.526;13.408;2023-07-24T03:42:29;4.82;;;1.60;;
1412;SDS011;701;52.526;13.408;2023-07-24T03:44:56;6.18;;;1.80;;
1412;SDS011;701;52.526;13.408;2023-07-24T03:47:22;4.53;;;1.48;;
1412;SDS011;701;52.526;13.408;2023-07-24T03:49:49;6.32;;;2.08;;
1412;SDS011;701;52.526;13.408;2023-07-24T03:52:15;10.90;;;1.57;;
1412;SDS011;701;52.526;13.408;2023-07-24T03:54:41;4.90;;;1.73;;
1412;SDS011;701;52.526;13.408;2023-07-24T03:57:07;5.03;;;1.70;;
1412;SDS011;701;52.526;13.408;2023-07-24T03:59:33;5.90;;;1.45;;
1412;SDS011;701;52.526;13.408;2023-07-24T04:01:59;4.80;;;1.40;;
1412;SDS011;701;52.526;13.408;2023-07-24T04:04:25;4.38;;;1.27;;
1412;SDS011;701;52.526;13.408;2023-07-24T04:06:51;4.73;;;1.50;;
1412;SDS011;701;52.526;13.408;2023-07-24T04:09:16;4.00;;;1.25;;
1412;SDS011;701;52.526;13.408;2023-07-24T04:11:43;4.95;;;1.55;;
1412;SDS011;701;52.526;13.408;2023-07-24T04:14:09;7.93;;;1.60;;
1412;SDS011;701;52.526;13.408;2023-07-24T04:16:35;4.20;;;1.30;;
1412;SDS011;701;52.526;13.408;2023-07-24T04:19:01;4.20;;;1.35;;
1412;SDS011;701;52.526;13.408;2023-07-24T04:21:27;4.30;;;1.50;;
1412;SDS011;701;52.526;13.408;2023-07-24T04:23:53;4.63;;;1.40;;
1412;SDS011;701;52.526;13.408;2023-07-24T04:26:19;4.65;;;1.60;;
1412;SDS011;701;52.526;13.408;2023-07-24T04:28:44;6.13;;;1.47;;
1412;SDS011;701;52.526;13.408;2023-07-24T04:31:10;4.38;;;1.58;;
1412;SDS011;701;52.526;13.408;2023-07-24T04:33:36;5.07;;;1.40;;
1412;SDS011;701;52.526;13.408;2023-07-24T04:36:01;6.82;;;1.70;;
1412;SDS011;701;52.526;13.408;2023-07-24T04:38:27;6.85;;;2.25;;
1412;SDS011;701;52.526;13.408;2023-07-24T04:40:53;5.80;;;1.53;;
1412;SDS011;701;52.526;13.408;2023-07-24T04:43:19;6.10;;;2.03;;
1412;SDS011;701;52.526;13.408;2023-07-24T04:45:44;5.10;;;1.50;;
1412;SDS011;701;52.526;13.408;2023-07-24T04:48:10;4.22;;;1.42;;
1412;SDS011;701;52.526;13.408;2023-07-24T04:50:36;5.67;;;1.70;;
1412;SDS011;701;52.526;13.408;2023-07-24T04:53:01;11.38;;;2.33;;
1412;SDS011;701;52.526;13.408;2023-07-24T04:55:27;5.50;;;1.80;;
1412;SDS011;701;52.526;13.408;2023-07-24T04:57:53;6.15;;;2.30;;
1412;SDS011;701;52.526;13.408;2023-07-24T05:00:19;4.33;;;1.60;;
1412;SDS011;701;52.526;13.408;2023-07-24T05:02:44;7.85;;;1.83;;
1412;SDS011;701;52.526;13.408;2023-07-24T05:05:10;5.70;;;1.88;;
1412;SDS011;701;52.526;13.408;2023-07-24T05:07:39;5.07;;;1.40;;
1412;SDS011;701;52.526;13.408;2023-07-24T05:10:05;5.63;;;1.75;;
1412;SDS011;701;52.526;13.408;2023-07-24T05:12:31;7.35;;;1.90;;
1412;SDS011;701;52.526;13.408;2023-07-24T05:14:56;4.33;;;1.50;;
1412;SDS011;701;52.526;13.408;2023-07-24T05:17:22;4.60;;;1.25;;
1412;SDS011;701;52.526;13.408;2023-07-24T05:19:48;4.80;;;1.33;;
1412;SDS011;701;52.526;13.408;2023-07-24T05:22:14;4.15;;;1.40;;
1412;SDS011;701;52.526;13.408;2023-07-24T05:24:39;3.73;;;1.13;;
1412;SDS011;701;52.526;13.408;2023-07-24T05:27:05;4.45;;;1.30;;
1412;SDS011;701;52.526;13.408;2023-07-24T05:29:31;4.13;;;1.20;;
1412;SDS011;701;52.526;13.408;2023-07-24T05:31:57;7.93;;;1.90;;
1412;SDS011;701;52.526;13.408;2023-07-24T05:34:24;8.63;;;2.20;;
1412;SDS011;701;52.526;13.408;2023-07-24T05:36:50;6.50;;;1.75;;
1412;SDS011;701;52.526;13.408;2023-07-24T05:39:16;4.00;;;1.30;;
1412;SDS011;701;52.526;13.408;2023-07-24T05:41:42;4.03;;;1.20;;
1412;SDS011;701;52.526;13.408;2023-07-24T05:44:07;12.67;;;1.60;;
1412;SDS011;701;52.526;13.408;2023-07-24T05:46:33;5.68;;;1.30;;
1412;SDS011;701;52.526;13.408;2023-07-24T05:48:59;6.90;;;2.63;;
1412;SDS011;701;52.526;13.408;2023-07-24T05:51:28;6.78;;;1.98;;
1412;SDS011;701;52.526;13.408;2023-07-24T05:53:53;8.27;;;3.78;;
1412;SDS011;701;52.526;13.408;2023-07-24T05:56:19;4.57;;;1.77;;
1412;SDS011;701;52.526;13.408;2023-07-24T05:58:45;3.72;;;1.20;;
1412;SDS011;701;52.526;13.408;2023-07-24T06:01:10;6.67;;;1.40;;
1412;SDS011;701;52.526;13.408;2023-07-24T06:03:36;5.93;;;2.45;;
1412;SDS011;701;52.526;13.408;2023-07-24T06:06:04;6.38;;;1.77;;
1412;SDS011;701;52.526;13.408;2023-07-24T06:08:29;5.40;;;1.67;;
1412;SDS011;701;52.526;13.408;2023-07-24T06:10:55;5.33;;;1.50;;
1412;SDS011;701;52.526;13.408;2023-07-24T06:13:21;12.88;;;1.60;;
1412;SDS011;701;52.526;13.408;2023-07-24T06:15:47;8.77;;;2.07;;
1412;SDS011;701;52.526;13.408;2023-07-24T06:18:16;10.68;;;4.53;;
1412;SDS011;701;52.526;13.408;2023-07-24T06:20:42;10.75;;;1.83;;
1412;SDS011;701;52.526;13.408;2023-07-24T06:23:07;4.40;;;1.40;;
1412;SDS011;701;52.526;13.408;2023-07-24T06:25:33;4.22;;;1.48;;
1412;SDS011;701;52.526;13.408;2023-07-24T06:27:59;4.20;;;1.45;;
1412;SDS011;701;52.526;13.408;2023-07-24T06:30:25;4.73;;;1.73;;
1412;SDS011;701;52.526;13.408;2023-07-24T06:32:51;5.35;;;1.88;;
1412;SDS011;701;52.526;13.408;2023-07-24T06:35:17;6.20;;;2.00;;
1412;SDS011;701;52.526;13.408;2023-07-24T06:37:43;5.40;;;2.20;;
1412;SDS011;701;52.526;13.408;2023-07-24T06:40:09;6.97;;;1.90;;
1412;SDS011;701;52.526;13.408;2023-07-24T06:42:35;5.03;;;1.80;;
1412;SDS011;701;52.526;13.408;2023-07-24T06:45:01;5.33;;;2.27;;
1412;SDS011;701;52.526;13.408;2023-07-24T06:47:27;8.38;;;2.60;;
1412;SDS011;701;52.526;13.408;2023-07-24T06:49:52;6.43;;;1.70;;
1412;SDS011;701;52.526;13.408;2023-07-24T06:52:18;4.17;;;1.60;;
1412;SDS011;701;52.526;13.408;2023-07-24T06:54:44;4.28;;;1.58;;
1412;SDS011;701;52.526;13.408;2023-07-24T06:57:10;4.97;;;2.10;;
1412;SDS011;701;52.526;13.408;2023-07-24T06:59:35;4.95;;;1.88;;
1412;SDS011;701;52.526;13.408;2023-07-24T07:02:01;7.40;;;1.70;;
1412;SDS011;701;52.526;13.408;2023-07-24T07:04:27;4.93;;;1.88;;
1412;SDS011;701;52.526;13.408;2023-07-24T07:06:53;4.45;;;1.80;;
1412;SDS011;701;52.526;13.408;2023-07-24T07:09:18;4.30;;;1.60;;
1412;SDS011;701;52.526;13.408;2023-07-24T07:11:44;4.38;;;1.75;;
1412;SDS011;701;52.526;13.408;2023-07-24T07:14:10;4.67;;;1.77;;
1412;SDS011;701;52.526;13.408;2023-07-24T07:16:36;10.02;;;2.03;;
1412;SDS011;701;52.526;13.408;2023-07-24T07:19:02;6.80;;;2.67;;
1412;SDS011;701;52.526;13.408;2023-07-24T07:21:27;5.78;;;2.47;;
1412;SDS011;701;52.526;13.408;2023-07-24T07:23:53;7.47;;;2.70;;
1412;SDS011;701;52.526;13.408;2023-07-24T07:26:20;5.18;;;2.20;;
1412;SDS011;701;52.526;13.408;2023-07-24T07:28:45;4.93;;;2.67;;
1412;SDS011;701;52.526;13.408;2023-07-24T07:31:11;5.85;;;2.42;;
1412;SDS011;701;52.526;13.408;2023-07-24T07:33:38;5.50;;;2.90;;
1412;SDS011;701;52.526;13.408;2023-07-24T07:36:04;5.55;;;2.55;;
1412;SDS011;701;52.526;13.408;2023-07-24T07:38:31;4.63;;;2.38;;
1412;SDS011;701;52.526;13.408;2023-07-24T07:40:57;5.30;;;3.38;;
1412;SDS011;701;52.526;13.408;2023-07-24T07:43:23;5.50;;;3.03;;
1412;SDS011;701;52.526;13.408;2023-07-24T07:45:48;6.20;;;3.13;;
1412;SDS011;701;52.526;13.408;2023-07-24T07:48:14;5.63;;;2.90;;
1412;SDS011;701;52.526;13.408;2023-07-24T07:50:40;4.97;;;2.77;;
1412;SDS011;701;52.526;13.408;2023-07-24T07:53:06;5.75;;;3.42;;
1412;SDS011;701;52.526;13.408;2023-07-24T07:55:31;5.13;;;3.17;;
1412;SDS011;701;52.526;13.408;2023-07-24T07:57:57;7.20;;;3.10;;
1412;SDS011;701;52.526;13.408;2023-07-24T08:00:23;4.70;;;2.93;;
1412;SDS011;701;52.526;13.408;2023-07-24T08:02:49;5.93;;;3.23;;
1412;SDS011;701;52.526;13.408;2023-07-24T08:05:14;5.93;;;3.00;;
1412;SDS011;701;52.526;13.408;2023-07-24T08:07:41;5.40;;;2.73;;
1412;SDS011;701;52.526;13.408;2023-07-24T08:10:07;11.32;;;3.15;;
1412;SDS011;701;52.526;13.408;2023-07-24T08:12:33;5.57;;;3.05;;
1412;SDS011;701;52.526;13.408;2023-07-24T08:14:59;5.25;;;3.10;;
1412;SDS011;701;52.526;13.408;2023-07-24T08:17:25;4.47;;;2.40;;
1412;SDS011;701;52.526;13.408;2023-07-24T08:19:51;4.53;;;2.50;;
1412;SDS011;701;52.526;13.408;2023-07-24T08:22:16;4.97;;;3.05;;
1412;SDS011;701;52.526;13.408;2023-07-24T08:24:44;8.27;;;2.77;;
1412;SDS011;701;52.526;13.408;2023-07-24T08:27:10;5.88;;;2.75;;
1412;SDS011;701;52.526;13.408;2023-07-24T08:29:36;11.50;;;3.35;;
1412;SDS011;701;52.526;13.408;2023-07-24T08:32:03;8.18;;;3.38;;
1412;SDS011;701;52.526;13.408;2023-07-24T08:34:29;4.93;;;2.50;;
1412;SDS011;701;52.526;13.408;2023-07-24T08:36:55;4.60;;;2.70;;
1412;SDS011;701;52.526;13.408;2023-07-24T08:39:21;4.60;;;2.40;;
1412;SDS011;701;52.526;13.408;2023-07-24T08:41:47;5.00;;;2.87;;
1412;SDS011;701;52.526;13.408;2023-07-24T08:44:12;4.22;;;2.10;;
1412;SDS011;701;52.526;13.408;2023-07-24T08:46:39;5.05;;;2.10;;
1412;SDS011;701;52.526;13.408;2023-07-24T08:49:06;6.20;;;2.37;;
1412;SDS011;701;52.526;13.408;2023-07-24T08:51:37;6.18;;;2.30;;
1412;SDS011;701;52.526;13.408;2023-07-24T08:54:03;6.10;;;2.53;;
1412;SDS011;701;52.526;13.408;2023-07-24T08:56:29;4.55;;;2.13;;
1412;SDS011;701;52.526;13.408;2023-07-24T08:58:55;5.07;;;2.13;;
1412;SDS011;701;52.526;13.408;2023-07-24T09:01:21;7.03;;;1.83;;
1412;SDS011;701;52.526;13.408;2023-07-24T09:03:47;3.80;;;1.60;;
1412;SDS011;701;52.526;13.408;2023-07-24T09:06:13;8.20;;;1.90;;
1412;SDS011;701;52.526;13.408;2023-07-24T09:08:40;5.73;;;2.23;;
1412;SDS011;701;52.526;13.408;2023-07-24T09:11:07;5.25;;;1.80;;
1412;SDS011;701;52.526;13.408;2023-07-24T09:13:35;4.20;;;1.95;;
1412;SDS011;701;52.526;13.408;2023-07-24T09:16:02;5.37;;;1.60;;
1412;SDS011;701;52.526;13.408;2023-07-24T09:18:40;6.07;;;1.92;;
1412;SDS011;701;52.526;13.408;2023-07-24T09:21:07;5.65;;;2.08;;
1412;SDS011;701;52.526;13.408;2023-07-24T09:23:33;4.40;;;1.80;;
1412;SDS011;701;52.526;13.408;2023-07-24T09:25:59;5.47;;;2.17;;
1412;SDS011;701;52.526;13.408;2023-07-24T09:28:30;4.90;;;2.00;;
1412;SDS011;701;52.526;13.408;2023-07-24T09:30:56;5.88;;;2.20;;
1412;SDS011;701;52.526;13.408;2023-07-24T09:33:24;5.10;;;2.50;;
1412;SDS011;701;52.526;13.408;2023-07-24T09:36:00;6.00;;;2.30;;
1412;SDS011;701;52.526;13.408;2023-07-24T09:38:26;5.47;;;2.05;;
1412;SDS011;701;52.526;13.408;2023-07-24T09:40:53;4.60;;;2.05;;
1412;SDS011;701;52.526;13.408;2023-07-24T09:43:27;7.03;;;2.13;;
1412;SDS011;701;52.526;13.408;2023-07-24T09:45:54;4.65;;;1.80;;
1412;SDS011;701;52.526;13.408;2023-07-24T09:48:21;6.20;;;2.40;;
1412;SDS011;701;52.526;13.408;2023-07-24T09:50:54;6.40;;;2.15;;
1412;SDS011;701;52.526;13.408;2023-07-24T09:53:24;4.80;;;2.13;;
1412;SDS011;701;52.526;13.408;2023-07-24T09:58:24;4.63;;;2.10;;
1412;SDS011;701;52.526;13.408;2023-07-24T10:00:51;5.27;;;2.10;;
1412;SDS011;701;52.526;13.408;2023-07-24T10:03:18;5.13;;;2.20;;
1412;SDS011;701;52.526;13.408;2023-07-24T10:05:45;5.47;;;1.90;;
1412;SDS011;701;52.526;13.408;2023-07-24T10:08:13;5.88;;;2.00;;
1412;SDS011;701;52.526;13.408;2023-07-24T10:10:40;4.55;;;1.90;;
1412;SDS011;701;52.526;13.408;2023-07-24T10:13:06;5.23;;;2.20;;
1412;SDS011;701;52.526;13.408;2023-07-24T10:15:36;4.93;;;2.17;;
1412;SDS011;701;52.526;13.408;2023-07-24T10:18:03;7.32;;;2.10;;
1412;SDS011;701;52.526;13.408;2023-07-24T10:20:34;5.78;;;2.72;;
1412;SDS011;701;52.526;13.408;2023-07-24T10:23:03;4.50;;;1.70;;
1412;SDS011;701;52.526;13.408;2023-07-24T10:25:33;7.57;;;2.40;;
1412;SDS011;701;52.526;13.408;2023-07-24T10:28:01;5.22;;;2.38;;
1412;SDS011;701;52.526;13.408;2023-07-24T10:30:33;8.15;;;2.80;;
1412;SDS011;701;52.526;13.408;2023-07-24T10:33:04;8.18;;;2.53;;
1412;SDS011;701;52.526;13.408;2023-07-24T10:35:37;6.97;;;3.13;;
1412;SDS011;701;52.526;13.408;2023-07-24T10:38:04;7.25;;;3.10;;
1412;SDS011;701;52.526;13.408;2023-07-24T10:40:30;7.35;;;3.10;;
1412;SDS011;701;52.526;13.408;2023-07-24T10:43:00;7.03;;;3.30;;
1412;SDS011;701;52.526;13.408;2023-07-24T10:45:37;6.80;;;3.03;;
1412;SDS011;701;52.526;13.408;2023-07-24T10:48:07;9.18;;;3.13;;
1412;SDS011;701;52.526;13.408;2023-07-24T10:50:37;7.45;;;3.28;;
1412;SDS011;701;52.526;13.408;2023-07-24T10:53:08;6.75;;;3.08;;
1412;SDS011;701;52.526;13.408;2023-07-24T10:55:34;7.53;;;3.90;;
1412;SDS011;701;52.526;13.408;2023-07-24T10:58:00;11.37;;;3.60;;
1412;SDS011;701;52.526;13.408;2023-07-24T11:00:26;7.22;;;3.75;;
1412;SDS011;701;52.526;13.408;2023-07-24T11:02:53;6.53;;;2.80;;
1412;SDS011;701;52.526;13.408;2023-07-24T11:05:20;6.75;;;3.05;;
1412;SDS011;701;52.526;13.408;2023-07-24T11:07:49;7.33;;;3.10;;
1412;SDS011;701;52.526;13.408;2023-07-24T11:10:16;7.63;;;3.08;;
1412;SDS011;701;52.526;13.408;2023-07-24T11:12:44;7.38;;;3.03;;
1412;SDS011;701;52.526;13.408;2023-07-24T11:15:10;7.25;;;3.05;;
1412;SDS011;701;52.526;13.408;2023-07-24T11:17:38;8.43;;;3.33;;
1412;SDS011;701;52.526;13.408;2023-07-24T11:22:33;6.47;;;2.85;;
1412;SDS011;701;52.526;13.408;2023-07-24T11:24:59;6.32;;;2.70;;
1412;SDS011;701;52.526;13.408;2023-07-24T11:27:26;8.35;;;3.33;;
1412;SDS011;701;52.526;13.408;2023-07-24T11:29:52;7.88;;;3.22;;
1412;SDS011;701;52.526;13.408;2023-07-24T11:32:21;8.67;;;2.97;;
1412;SDS011;701;52.526;13.408;2023-07-24T11:34:48;9.18;;;2.92;;
1412;SDS011;701;52.526;13.408;2023-07-24T11:37:15;7.57;;;2.95;;
1412;SDS011;701;52.526;13.408;2023-07-24T11:39:41;7.80;;;2.90;;
1412;SDS011;701;52.526;13.408;2023-07-24T11:42:07;7.00;;;3.00;;
1412;SDS011;701;52.526;13.408;2023-07-24T11:44:33;7.20;;;2.87;;
1412;SDS011;701;52.526;13.408;2023-07-24T11:47:02;10.68;;;3.30;;
1412;SDS011;701;52.526;13.408;2023-07-24T11:49:29;7.50;;;3.13;;
1412;SDS011;701;52.526;13.408;2023-07-24T11:52:03;9.10;;;3.13;;
1412;SDS011;701;52.526;13.408;2023-07-24T11:54:30;7.43;;;2.90;;
1412;SDS011;701;52.526;13.408;2023-07-24T11:56:56;9.60;;;3.45;;
1412;SDS011;701;52.526;13.408;2023-07-24T11:59:21;10.70;;;2.95;;
1412;SDS011;701;52.526;13.408;2023-07-24T12:01:49;13.20;;;2.87;;
1412;SDS011;701;52.526;13.408;2023-07-24T12:04:15;7.28;;;3.22;;
1412;SDS011;701;52.526;13.408;2023-07-24T12:06:41;9.90;;;3.25;;
1412;SDS011;701;52.526;13.408;2023-07-24T12:09:08;7.47;;;3.50;;
1412;SDS011;701;52.526;13.408;2023-07-24T12:11:39;7.07;;;3.40;;
1412;SDS011;701;52.526;13.408;2023-07-24T12:14:06;11.07;;;5.07;;
1412;SDS011;701;52.526;13.408;2023-07-24T12:16:33;7.03;;;3.22;;
1412;SDS011;701;52.526;13.408;2023-07-24T12:18:59;10.23;;;3.05;;
1412;SDS011;701;52.526;13.408;2023-07-24T12:21:25;7.60;;;3.40;;
1412;SDS011;701;52.526;13.408;2023-07-24T12:23:51;11.30;;;3.50;;
1412;SDS011;701;52.526;13.408;2023-07-24T12:26:17;8.43;;;2.83;;
1412;SDS011;701;52.526;13.408;2023-07-24T12:28:43;10.38;;;2.88;;
1412;SDS011;701;52.526;13.408;2023-07-24T12:31:08;7.60;;;2.63;;
1412;SDS011;701;52.526;13.408;2023-07-24T12:33:34;18.77;;;3.17;;
1412;SDS011;701;52.526;13.408;2023-07-24T12:36:00;12.82;;;4.53;;
1412;SDS011;701;52.526;13.408;2023-07-24T12:38:26;7.73;;;2.67;;
1412;SDS011;701;52.526;13.408;2023-07-24T12:40:53;7.93;;;2.65;;
1412;SDS011;701;52.526;13.408;2023-07-24T12:43:18;6.72;;;2.60;;
1412;SDS011;701;52.526;13.408;2023-07-24T12:45:44;6.07;;;2.40;;
1412;SDS011;701;52.526;13.408;2023-07-24T12:48:10;7.82;;;2.80;;
1412;SDS011;701;52.526;13.408;2023-07-24T12:50:35;6.50;;;2.50;;
1412;SDS011;701;52.526;13.408;2023-07-24T12:53:01;8.10;;;2.70;;
1412;SDS011;701;52.526;13.408;2023-07-24T12:55:27;10.03;;;3.00;;
1412;SDS011;701;52.526;13.408;2023-07-24T12:57:55;9.20;;;2.35;;
1412;SDS011;701;52.526;13.408;2023-07-24T13:00:21;6.93;;;2.67;;
1412;SDS011;701;52.526;13.408;2023-07-24T13:02:48;6.93;;;3.08;;
1412;SDS011;701;52.526;13.408;2023-07-24T13:05:14;9.00;;;3.50;;
1412;SDS011;701;52.526;13.408;2023-07-24T13:07:40;6.45;;;2.85;;
1412;SDS011;701;52.526;13.408;2023-07-24T13:10:06;9.03;;;2.63;;
1412;SDS011;701;52.526;13.408;2023-07-24T13:12:32;6.82;;;2.55;;
1412;SDS011;701;52.526;13.408;2023-07-24T13:14:58;5.35;;;1.83;;
1412;SDS011;701;52.526;13.408;2023-07-24T13:17:23;6.40;;;2.40;;
1412;SDS011;701;52.526;13.408;2023-07-24T13:19:50;7.07;;;2.28;;
1412;SDS011;701;52.526;13.408;2023-07-24T13:22:15;7.50;;;2.23;;
1412;SDS011;701;52.526;13.408;2023-07-24T13:24:41;6.18;;;2.53;;
1412;SDS011;701;52.526;13.408;2023-07-24T13:27:07;8.73;;;2.72;;
1412;SDS011;701;52.526;13.408;2023-07-24T13:29:33;5.47;;;2.30;;
1412;SDS011;701;52.526;13.408;2023-07-24T13:31:58;9.00;;;2.63;;
1412;SDS011;701;52.526;13.408;2023-07-24T13:34:24;6.50;;;2.43;;
1412;SDS011;701;52.526;13.408;2023-07-24T13:36:50;5.22;;;2.00;;
1412;SDS011;701;52.526;13.408;2023-07-24T13:39:16;8.47;;;2.77;;
1412;SDS011;701;52.526;13.408;2023-07-24T13:41:42;6.28;;;2.10;;
1412;SDS011;701;52.526;13.408;2023-07-24T13:44:07;6.82;;;2.30;;
1412;SDS011;701;52.526;13.408;2023-07-24T13:46:34;8.40;;;2.30;;
1412;SDS011;701;52.526;13.408;2023-07-24T13:48:59;7.17;;;2.57;;
1412;SDS011;701;52.526;13.408;2023-07-24T13:51:25;7.15;;;2.42;;
1412;SDS011;701;52.526;13.408;2023-07-24T13:53:51;7.27;;;2.67;;
1412;SDS011;701;52.526;13.408;2023-07-24T13:56:18;6.85;;;2.70;;
1412;SDS011;701;52.526;13.408;2023-07-24T13:58:44;8.10;;;2.90;;
1412;SDS011;701;52.526;13.408;2023-07-24T14:01:10;5.97;;;2.63;;
1412;SDS011;701;52.526;13.408;2023-07-24T14:03:36;7.72;;;3.45;;
1412;SDS011;701;52.526;13.408;2023-07-24T14:06:02;9.43;;;2.78;;
1412;SDS011;701;52.526;13.408;2023-07-24T14:08:28;6.73;;;2.57;;
1412;SDS011;701;52.526;13.408;2023-07-24T14:10:54;8.90;;;2.42;;
1412;SDS011;701;52.526;13.408;2023-07-24T14:13:19;6.70;;;2.53;;
1412;SDS011;701;52.526;13.408;2023-07-24T14:15:45;7.07;;;2.80;;
1412;SDS011;701;52.526;13.408;2023-07-24T14:18:11;10.60;;;2.47;;
1412;SDS011;701;52.526;13.408;2023-07-24T14:20:37;7.32;;;2.55;;
1412;SDS011;701;52.526;13.408;2023-07-24T14:23:04;6.63;;;2.40;;
1412;SDS011;701;52.526;13.408;2023-07-24T14:25:30;7.00;;;2.42;;
1412;SDS011;701;52.526;13.408;2023-07-24T14:27:56;5.80;;;2.13;;
1412;SDS011;701;52.526;13.408;2023-07-24T14:30:22;10.50;;;2.53;;
1412;SDS011;701;52.526;13.408;2023-07-24T14:32:47;5.90;;;2.27;;
1412;SDS011;701;52.526;13.408;2023-07-24T14:35:15;8.43;;;2.53;;
1412;SDS011;701;52.526;13.408;2023-07-24T14:37:40;8.55;;;2.58;;
1412;SDS011;701;52.526;13.408;2023-07-24T14:40:07;9.53;;;3.23;;
1412;SDS011;701;52.526;13.408;2023-07-24T14:42:35;8.30;;;3.03;;
1412;SDS011;701;52.526;13.408;2023-07-24T14:45:01;12.38;;;2.88;;
1412;SDS011;701;52.526;13.408;2023-07-24T14:47:28;13.17;;;3.77;;
1412;SDS011;701;52.526;13.408;2023-07-24T14:49:54;16.45;;;3.20;;
1412;SDS011;701;52.526;13.408;2023-07-24T14:52:20;7.90;;;3.40;;
1412;SDS011;701;52.526;13.408;2023-07-24T14:54:46;10.63;;;2.88;;
1412;SDS011;701;52.526;13.408;2023-07-24T14:57:11;6.40;;;2.50;;
1412;SDS011;701;52.526;13.408;2023-07-24T14:59:37;6.95;;;2.50;;
1412;SDS011;701;52.526;13.408;2023-07-24T15:02:03;5.60;;;2.20;;
1412;SDS011;701;52.526;13.408;2023-07-24T15:04:29;8.98;;;4.30;;
1412;SDS011;701;52.526;13.408;2023-07-24T15:06:54;10.20;;;4.00;;
1412;SDS011;701;52.526;13.408;2023-07-24T15:09:20;6.85;;;2.95;;
1412;SDS011;701;52.526;13.408;2023-07-24T15:11:46;14.55;;;3.28;;
1412;SDS011;701;52.526;13.408;2023-07-24T15:14:12;6.83;;;2.67;;
1412;SDS011;701;52.526;13.408;2023-07-24T15:16:37;19.80;;;3.92;;
1412;SDS011;701;52.526;13.408;2023-07-24T15:19:03;6.23;;;2.47;;
1412;SDS011;701;52.526;13.408;2023-07-24T15:21:29;8.73;;;3.42;;
1412;SDS011;701;52.526;13.408;2023-07-24T15:23:55;10.73;;;2.85;;
1412;SDS011;701;52.526;13.408;2023-07-24T15:26:21;8.53;;;3.03;;